sensor_id;sensor_type;location;lat;lon;timestamp;temperature;humidity
19538;DHT22;9914;51.008;4.300;2023-09-19T00:00:15;16.40;99.90
19538;DHT22;9914;51.008;4.300;2023-09-19T00:02:45;16.50;99.90
19538;DHT22;9914;51.008;4.300;2023-09-19T00:05:12;16.50;99.90
19538;DHT22;9914;51.008;4.300;2023-09-19T00:07:39;16.50;99.90
19538;DHT22;9914;51.008;4.300;2023-09-19T00:10:06;16.40;99.90
19538;DHT22;9914;51.008;4.300;2023-09-19T00:12:36;16.40;99.90
19538;DHT22;9914;51.008;4.300;2023-09-19T00:15:01;16.50;99.90
19538;DHT22;9914;51.008;4.300;2023-09-19T00:17:31;16.40;99.90
19538;DHT22;9914;51.008;4.300;2023-09-19T00:19:57;16.50;99.90
19538;DHT22;9914;51.008;4.300;2023-09-19T00:22:23;16.60;99.90
19538;DHT22;9914;51.008;4.300;2023-09-19T00:24:51;16.50;99.90
19538;DHT22;9914;51.008;4.300;2023-09-19T00:27:17;16.50;99.90
19538;DHT22;9914;51.008;4.300;2023-09-19T00:29:44;16.40;99.90
19538;DHT22;9914;51.008;4.300;2023-09-19T00:32:09;16.50;99.90
19538;DHT22;9914;51.008;4.300;2023-09-19T00:34:35;16.50;99.90
19538;DHT22;9914;51.008;4.300;2023-09-19T00:37:01;16.50;99.90
19538;DHT22;9914;51.008;4.300;2023-09-19T00:39:26;16.50;99.90
19538;DHT22;9914;51.008;4.300;2023-09-19T00:41:57;16.50;99.90
19538;DHT22;9914;51.008;4.300;2023-09-19T00:44:22;16.40;99.90
19538;DHT22;9914;51.008;4.300;2023-09-19T00:46:49;16.40;99.90
19538;DHT22;9914;51.008;4.300;2023-09-19T00:49:16;16.40;99.90
19538;DHT22;9914;51.008;4.300;2023-09-19T00:51:42;16.40;99.90
19538;DHT22;9914;51.008;4.300;2023-09-19T00:54:12;16.40;99.90
19538;DHT22;9914;51.008;4.300;2023-09-19T00:56:44;16.30;99.90
19538;DHT22;9914;51.008;4.300;2023-09-19T00:59:10;16.30;99.90
19538;DHT22;9914;51.008;4.300;2023-09-19T01:01:39;16.40;99.90
19538;DHT22;9914;51.008;4.300;2023-09-19T01:04:06;16.40;99.90
19538;DHT22;9914;51.008;4.300;2023-09-19T01:06:32;16.40;99.90
19538;DHT22;9914;51.008;4.300;2023-09-19T01:08:57;16.30;99.90
19538;DHT22;9914;51.008;4.300;2023-09-19T01:11:33;16.30;99.90
19538;DHT22;9914;51.008;4.300;2023-09-19T01:14:15;16.30;99.90
19538;DHT22;9914;51.008;4.300;2023-09-19T01:16:56;16.30;99.90
19538;DHT22;9914;51.008;4.300;2023-09-19T01:31:09;16.20;99.90
19538;DHT22;9914;51.008;4.300;2023-09-19T01:33:54;16.20;99.90
19538;DHT22;9914;51.008;4.300;2023-09-19T01:36:23;16.20;99.90
19538;DHT22;9914;51.008;4.300;2023-09-19T01:38:50;16.20;99.90
19538;DHT22;9914;51.008;4.300;2023-09-19T01:41:21;16.20;99.90
19538;DHT22;9914;51.008;4.300;2023-09-19T01:43:49;16.30;99.90
19538;DHT22;9914;51.008;4.300;2023-09-19T01:46:23;16.20;99.90
19538;DHT22;9914;51.008;4.300;2023-09-19T01:51:33;16.20;99.90
19538;DHT22;9914;51.008;4.300;2023-09-19T01:54:12;16.30;99.90
19538;DHT22;9914;51.008;4.300;2023-09-19T01:56:52;16.30;99.90
19538;DHT22;9914;51.008;4.300;2023-09-19T01:59:34;16.30;99.90
19538;DHT22;9914;51.008;4.300;2023-09-19T02:02:01;16.30;99.90
19538;DHT22;9914;51.008;4.300;2023-09-19T02:04:27;16.30;99.90
19538;DHT22;9914;51.008;4.300;2023-09-19T02:06:53;16.30;99.90
19538;DHT22;9914;51.008;4.300;2023-09-19T02:09:19;16.30;99.90
19538;DHT22;9914;51.008;4.300;2023-09-19T02:11:45;16.40;99.90
19538;DHT22;9914;51.008;4.300;2023-09-19T02:14:11;16.40;99.90
19538;DHT22;9914;51.008;4.300;2023-09-19T02:16:37;16.40;99.90
19538;DHT22;9914;51.008;4.300;2023-09-19T02:19:03;16.40;99.90
19538;DHT22;9914;51.008;4.300;2023-09-19T02:21:31;16.40;99.90
19538;DHT22;9914;51.008;4.300;2023-09-19T02:23:58;16.30;99.90
19538;DHT22;9914;51.008;4.300;2023-09-19T02:26:24;16.30;99.90
19538;DHT22;9914;51.008;4.300;2023-09-19T02:28:50;16.20;99.90
19538;DHT22;9914;51.008;4.300;2023-09-19T02:31:15;16.10;99.90
19538;DHT22;9914;51.008;4.300;2023-09-19T02:33:42;16.20;99.90
19538;DHT22;9914;51.008;4.300;2023-09-19T02:36:09;16.10;99.90
19538;DHT22;9914;51.008;4.300;2023-09-19T02:38:34;16.10;99.90
19538;DHT22;9914;51.008;4.300;2023-09-19T02:41:00;16.10;99.90
19538;DHT22;9914;51.008;4.300;2023-09-19T02:43:27;16.10;99.90
19538;DHT22;9914;51.008;4.300;2023-09-19T02:45:53;16.10;99.90
19538;DHT22;9914;51.008;4.300;2023-09-19T02:48:22;16.10;99.90
19538;DHT22;9914;51.008;4.300;2023-09-19T02:50:51;16.10;99.90
19538;DHT22;9914;51.008;4.300;2023-09-19T02:53:17;16.10;99.90
19538;DHT22;9914;51.008;4.300;2023-09-19T02:55:43;16.00;99.90
19538;DHT22;9914;51.008;4.300;2023-09-19T02:58:09;16.00;99.90
19538;DHT22;9914;51.008;4.300;2023-09-19T03:00:37;16.00;99.90
19538;DHT22;9914;51.008;4.300;2023-09-19T03:03:03;16.10;99.90
19538;DHT22;9914;51.008;4.300;2023-09-19T03:05:29;16.10;99.90
19538;DHT22;9914;51.008;4.300;2023-09-19T03:07:56;16.20;99.90
19538;DHT22;9914;51.008;4.300;2023-09-19T03:10:23;16.20;99.90
19538;DHT22;9914;51.008;4.300;2023-09-19T03:12:50;16.10;99.90
19538;DHT22;9914;51.008;4.300;2023-09-19T03:15:16;16.10;99.90
19538;DHT22;9914;51.008;4.300;2023-09-19T03:17:48;16.10;99.90
19538;DHT22;9914;51.008;4.300;2023-09-19T03:20:14;16.00;99.90
19538;DHT22;9914;51.008;4.300;2023-09-19T03:22:43;16.10;99.90
19538;DHT22;9914;51.008;4.300;2023-09-19T03:25:09;16.20;99.90
19538;DHT22;9914;51.008;4.300;2023-09-19T03:27:37;16.30;99.90
19538;DHT22;9914;51.008;4.300;2023-09-19T03:30:04;16.30;99.90
19538;DHT22;9914;51.008;4.300;2023-09-19T03:32:34;16.30;99.90
19538;DHT22;9914;51.008;4.300;2023-09-19T03:35:00;16.40;99.90
19538;DHT22;9914;51.008;4.300;2023-09-19T03:37:27;16.50;99.90
19538;DHT22;9914;51.008;4.300;2023-09-19T03:39:52;16.50;99.90
19538;DHT22;9914;51.008;4.300;2023-09-19T03:42:18;16.40;99.90
19538;DHT22;9914;51.008;4.300;2023-09-19T03:44:51;16.30;99.90
19538;DHT22;9914;51.008;4.300;2023-09-19T03:47:17;16.20;99.90
19538;DHT22;9914;51.008;4.300;2023-09-19T03:49:44;16.30;99.90
19538;DHT22;9914;51.008;4.300;2023-09-19T03:52:10;16.20;99.90
19538;DHT22;9914;51.008;4.300;2023-09-19T03:54:36;16.30;99.90
19538;DHT22;9914;51.008;4.300;2023-09-19T03:57:02;16.30;99.90
19538;DHT22;9914;51.008;4.300;2023-09-19T03:59:29;16.30;99.90
19538;DHT22;9914;51.008;4.300;2023-09-19T04:01:55;16.30;99.90
19538;DHT22;9914;51.008;4.300;2023-09-19T04:04:22;16.30;99.90
19538;DHT22;9914;51.008;4.300;2023-09-19T04:06:50;16.10;99.90
19538;DHT22;9914;51.008;4.300;2023-09-19T04:09:16;16.10;99.90
19538;DHT22;9914;51.008;4.300;2023-09-19T04:11:42;16.00;99.90
19538;DHT22;9914;51.008;4.300;2023-09-19T04:14:07;15.90;99.90
19538;DHT22;9914;51.008;4.300;2023-09-19T04:16:33;15.70;99.90
19538;DHT22;9914;51.008;4.300;2023-09-19T04:18:59;15.70;99.90
19538;DHT22;9914;51.008;4.300;2023-09-19T04:21:24;15.60;99.90
19538;DHT22;9914;51.008;4.300;2023-09-19T04:23:51;15.60;99.90
19538;DHT22;9914;51.008;4.300;2023-09-19T04:26:18;15.60;99.90
19538;DHT22;9914;51.008;4.300;2023-09-19T04:28:44;15.40;99.90
19538;DHT22;9914;51.008;4.300;2023-09-19T04:31:12;15.40;99.90
19538;DHT22;9914;51.008;4.300;2023-09-19T04:33:39;15.40;99.90
19538;DHT22;9914;51.008;4.300;2023-09-19T04:36:05;15.40;99.90
19538;DHT22;9914;51.008;4.300;2023-09-19T04:38:33;15.40;99.90
19538;DHT22;9914;51.008;4.300;2023-09-19T04:40:59;15.40;99.90
19538;DHT22;9914;51.008;4.300;2023-09-19T04:43:25;15.40;99.90
19538;DHT22;9914;51.008;4.300;2023-09-19T04:45:51;15.40;99.90
19538;DHT22;9914;51.008;4.300;2023-09-19T04:48:23;15.40;99.90
19538;DHT22;9914;51.008;4.300;2023-09-19T04:50:49;15.40;99.90
19538;DHT22;9914;51.008;4.300;2023-09-19T04:53:17;15.30;99.90
19538;DHT22;9914;51.008;4.300;2023-09-19T04:55:43;15.30;99.90
19538;DHT22;9914;51.008;4.300;2023-09-19T04:58:08;15.30;99.90
19538;DHT22;9914;51.008;4.300;2023-09-19T05:00:34;15.30;99.90
19538;DHT22;9914;51.008;4.300;2023-09-19T05:03:00;15.20;99.90
19538;DHT22;9914;51.008;4.300;2023-09-19T05:05:26;15.20;99.90
19538;DHT22;9914;51.008;4.300;2023-09-19T05:07:52;15.20;99.90
19538;DHT22;9914;51.008;4.300;2023-09-19T05:10:20;15.20;99.90
19538;DHT22;9914;51.008;4.300;2023-09-19T05:12:45;15.30;99.90
19538;DHT22;9914;51.008;4.300;2023-09-19T05:15:13;15.20;99.90
19538;DHT22;9914;51.008;4.300;2023-09-19T05:17:52;15.20;99.90
19538;DHT22;9914;51.008;4.300;2023-09-19T05:20:20;15.30;99.90
19538;DHT22;9914;51.008;4.300;2023-09-19T05:23:03;15.30;99.90
19538;DHT22;9914;51.008;4.300;2023-09-19T05:25:35;15.30;99.90
19538;DHT22;9914;51.008;4.300;2023-09-19T05:28:09;15.30;99.90
19538;DHT22;9914;51.008;4.300;2023-09-19T05:30:38;15.20;99.90
19538;DHT22;9914;51.008;4.300;2023-09-19T05:33:04;15.30;99.90
19538;DHT22;9914;51.008;4.300;2023-09-19T05:35:31;15.20;99.90
19538;DHT22;9914;51.008;4.300;2023-09-19T05:37:57;15.10;99.90
19538;DHT22;9914;51.008;4.300;2023-09-19T05:40:24;15.20;99.90
19538;DHT22;9914;51.008;4.300;2023-09-19T05:42:50;15.20;99.90
19538;DHT22;9914;51.008;4.300;2023-09-19T05:45:16;15.20;99.90
19538;DHT22;9914;51.008;4.300;2023-09-19T05:47:51;15.20;99.90
19538;DHT22;9914;51.008;4.300;2023-09-19T05:50:21;15.20;99.90
19538;DHT22;9914;51.008;4.300;2023-09-19T05:52:53;15.30;99.90
19538;DHT22;9914;51.008;4.300;2023-09-19T05:55:19;15.40;99.90
19538;DHT22;9914;51.008;4.300;2023-09-19T05:57:53;15.40;99.90
19538;DHT22;9914;51.008;4.300;2023-09-19T06:00:19;15.50;99.90
19538;DHT22;9914;51.008;4.300;2023-09-19T06:02:50;15.50;99.90
19538;DHT22;9914;51.008;4.300;2023-09-19T06:05:16;15.50;99.90
19538;DHT22;9914;51.008;4.300;2023-09-19T06:07:42;15.50;99.90
19538;DHT22;9914;51.008;4.300;2023-09-19T06:10:07;15.60;99.90
19538;DHT22;9914;51.008;4.300;2023-09-19T06:12:41;15.70;99.90
19538;DHT22;9914;51.008;4.300;2023-09-19T06:15:11;15.60;99.90
19538;DHT22;9914;51.008;4.300;2023-09-19T06:17:52;15.60;99.90
19538;DHT22;9914;51.008;4.300;2023-09-19T06:20:21;15.70;99.90
19538;DHT22;9914;51.008;4.300;2023-09-19T06:22:48;15.70;99.90
19538;DHT22;9914;51.008;4.300;2023-09-19T06:25:15;15.80;99.90
19538;DHT22;9914;51.008;4.300;2023-09-19T06:27:51;15.70;99.90
19538;DHT22;9914;51.008;4.300;2023-09-19T06:30:23;15.80;99.90
19538;DHT22;9914;51.008;4.300;2023-09-19T06:32:56;15.80;99.90
19538;DHT22;9914;51.008;4.300;2023-09-19T06:35:22;15.90;99.90
19538;DHT22;9914;51.008;4.300;2023-09-19T06:37:47;16.00;99.90
19538;DHT22;9914;51.008;4.300;2023-09-19T06:40:14;15.90;99.90
19538;DHT22;9914;51.008;4.300;2023-09-19T06:42:49;15.90;99.90
19538;DHT22;9914;51.008;4.300;2023-09-19T06:45:15;15.90;99.90
19538;DHT22;9914;51.008;4.300;2023-09-19T06:47:46;15.90;99.90
19538;DHT22;9914;51.008;4.300;2023-09-19T06:50:21;16.00;99.90
19538;DHT22;9914;51.008;4.300;2023-09-19T06:52:51;16.00;99.90
19538;DHT22;9914;51.008;4.300;2023-09-19T06:55:21;16.00;99.90
19538;DHT22;9914;51.008;4.300;2023-09-19T06:57:49;15.90;99.90
19538;DHT22;9914;51.008;4.300;2023-09-19T07:00:16;16.00;99.90
19538;DHT22;9914;51.008;4.300;2023-09-19T07:02:54;16.10;99.90
19538;DHT22;9914;51.008;4.300;2023-09-19T07:05:19;16.30;99.90
19538;DHT22;9914;51.008;4.300;2023-09-19T07:07:45;16.20;99.90
19538;DHT22;9914;51.008;4.300;2023-09-19T07:10:11;16.20;99.90
19538;DHT22;9914;51.008;4.300;2023-09-19T07:12:38;16.30;99.90
19538;DHT22;9914;51.008;4.300;2023-09-19T07:15:04;16.30;99.90
19538;DHT22;9914;51.008;4.300;2023-09-19T07:17:31;16.40;99.90
19538;DHT22;9914;51.008;4.300;2023-09-19T07:19:58;16.40;99.90
19538;DHT22;9914;51.008;4.300;2023-09-19T07:22:26;16.20;99.90
19538;DHT22;9914;51.008;4.300;2023-09-19T07:24:51;16.30;99.90
19538;DHT22;9914;51.008;4.300;2023-09-19T07:27:17;16.50;99.90
19538;DHT22;9914;51.008;4.300;2023-09-19T07:29:44;16.60;99.90
19538;DHT22;9914;51.008;4.300;2023-09-19T07:32:10;16.60;99.90
19538;DHT22;9914;51.008;4.300;2023-09-19T07:34:37;16.60;99.90
19538;DHT22;9914;51.008;4.300;2023-09-19T07:37:06;16.80;99.90
19538;DHT22;9914;51.008;4.300;2023-09-19T07:39:31;16.90;99.90
19538;DHT22;9914;51.008;4.300;2023-09-19T07:41:57;17.10;99.90
19538;DHT22;9914;51.008;4.300;2023-09-19T07:44:23;17.20;99.90
19538;DHT22;9914;51.008;4.300;2023-09-19T07:46:51;17.20;99.90
19538;DHT22;9914;51.008;4.300;2023-09-19T07:49:17;17.10;99.90
19538;DHT22;9914;51.008;4.300;2023-09-19T07:51:43;17.20;99.90
19538;DHT22;9914;51.008;4.300;2023-09-19T07:54:12;17.20;99.90
19538;DHT22;9914;51.008;4.300;2023-09-19T07:56:38;17.10;99.90
19538;DHT22;9914;51.008;4.300;2023-09-19T07:59:03;17.20;99.90
19538;DHT22;9914;51.008;4.300;2023-09-19T08:01:29;17.30;99.90
19538;DHT22;9914;51.008;4.300;2023-09-19T08:03:55;17.50;99.90
19538;DHT22;9914;51.008;4.300;2023-09-19T08:06:21;17.60;99.90
19538;DHT22;9914;51.008;4.300;2023-09-19T08:08:47;17.50;99.90
19538;DHT22;9914;51.008;4.300;2023-09-19T08:11:15;17.40;99.90
19538;DHT22;9914;51.008;4.300;2023-09-19T08:13:46;17.50;99.90
19538;DHT22;9914;51.008;4.300;2023-09-19T08:16:17;17.40;99.90
19538;DHT22;9914;51.008;4.300;2023-09-19T08:18:47;17.60;99.90
19538;DHT22;9914;51.008;4.300;2023-09-19T08:21:13;17.60;99.90
19538;DHT22;9914;51.008;4.300;2023-09-19T08:23:40;17.60;99.90
19538;DHT22;9914;51.008;4.300;2023-09-19T08:26:06;17.60;99.90
19538;DHT22;9914;51.008;4.300;2023-09-19T08:28:36;17.80;99.90
19538;DHT22;9914;51.008;4.300;2023-09-19T08:31:06;17.70;99.90
19538;DHT22;9914;51.008;4.300;2023-09-19T08:33:36;17.70;99.90
19538;DHT22;9914;51.008;4.300;2023-09-19T08:36:05;17.80;99.90
19538;DHT22;9914;51.008;4.300;2023-09-19T08:38:33;18.10;99.90
19538;DHT22;9914;51.008;4.300;2023-09-19T08:41:00;18.30;99.90
19538;DHT22;9914;51.008;4.300;2023-09-19T08:43:27;18.50;99.90
19538;DHT22;9914;51.008;4.300;2023-09-19T08:46:06;18.60;99.90
19538;DHT22;9914;51.008;4.300;2023-09-19T08:48:34;18.50;99.90
19538;DHT22;9914;51.008;4.300;2023-09-19T08:51:06;18.40;99.90
19538;DHT22;9914;51.008;4.300;2023-09-19T08:53:51;18.60;99.90
19538;DHT22;9914;51.008;4.300;2023-09-19T08:56:20;18.50;99.90
19538;DHT22;9914;51.008;4.300;2023-09-19T08:58:53;18.80;99.90
19538;DHT22;9914;51.008;4.300;2023-09-19T09:01:21;19.00;99.90
19538;DHT22;9914;51.008;4.300;2023-09-19T09:03:51;19.00;99.90
19538;DHT22;9914;51.008;4.300;2023-09-19T09:06:19;19.10;99.90
19538;DHT22;9914;51.008;4.300;2023-09-19T09:08:46;19.40;99.90
19538;DHT22;9914;51.008;4.300;2023-09-19T09:11:13;19.40;99.90
19538;DHT22;9914;51.008;4.300;2023-09-19T09:13:39;19.30;99.90
19538;DHT22;9914;51.008;4.300;2023-09-19T09:16:07;19.10;99.90
19538;DHT22;9914;51.008;4.300;2023-09-19T09:18:34;19.10;99.90
19538;DHT22;9914;51.008;4.300;2023-09-19T09:20:59;19.00;99.90
19538;DHT22;9914;51.008;4.300;2023-09-19T09:23:27;19.00;99.90
19538;DHT22;9914;51.008;4.300;2023-09-19T09:25:55;19.00;99.90
19538;DHT22;9914;51.008;4.300;2023-09-19T09:28:33;19.00;99.90
19538;DHT22;9914;51.008;4.300;2023-09-19T09:31:01;19.00;99.90
19538;DHT22;9914;51.008;4.300;2023-09-19T09:33:28;19.00;99.90
19538;DHT22;9914;51.008;4.300;2023-09-19T09:35:58;19.20;99.90
19538;DHT22;9914;51.008;4.300;2023-09-19T09:38:30;19.30;99.90
19538;DHT22;9914;51.008;4.300;2023-09-19T09:41:09;19.20;99.90
19538;DHT22;9914;51.008;4.300;2023-09-19T09:43:40;19.00;99.90
19538;DHT22;9914;51.008;4.300;2023-09-19T09:46:10;18.70;99.90
19538;DHT22;9914;51.008;4.300;2023-09-19T09:51:42;18.80;99.90
19538;DHT22;9914;51.008;4.300;2023-09-19T09:54:23;18.90;99.90
19538;DHT22;9914;51.008;4.300;2023-09-19T09:59:47;18.90;99.90
19538;DHT22;9914;51.008;4.300;2023-09-19T10:02:18;19.00;99.90
19538;DHT22;9914;51.008;4.300;2023-09-19T10:04:50;19.10;99.90
19538;DHT22;9914;51.008;4.300;2023-09-19T10:07:35;19.20;99.90
19538;DHT22;9914;51.008;4.300;2023-09-19T10:10:04;19.30;99.90
19538;DHT22;9914;51.008;4.300;2023-09-19T10:12:38;19.50;99.90
19538;DHT22;9914;51.008;4.300;2023-09-19T10:15:08;19.80;99.90
19538;DHT22;9914;51.008;4.300;2023-09-19T10:17:37;19.90;99.90
19538;DHT22;9914;51.008;4.300;2023-09-19T10:20:05;19.70;99.90
19538;DHT22;9914;51.008;4.300;2023-09-19T10:22:43;19.70;99.90
19538;DHT22;9914;51.008;4.300;2023-09-19T10:25:20;19.80;99.90
19538;DHT22;9914;51.008;4.300;2023-09-19T10:27:49;19.90;99.90
19538;DHT22;9914;51.008;4.300;2023-09-19T10:30:16;20.00;99.90
19538;DHT22;9914;51.008;4.300;2023-09-19T10:32:42;19.90;99.90
19538;DHT22;9914;51.008;4.300;2023-09-19T10:35:08;20.00;99.90
19538;DHT22;9914;51.008;4.300;2023-09-19T10:37:39;20.10;99.90
19538;DHT22;9914;51.008;4.300;2023-09-19T10:40:07;20.20;99.90
19538;DHT22;9914;51.008;4.300;2023-09-19T10:42:38;20.20;99.90
19538;DHT22;9914;51.008;4.300;2023-09-19T10:45:07;20.40;99.90
19538;DHT22;9914;51.008;4.300;2023-09-19T10:47:39;20.40;99.90
19538;DHT22;9914;51.008;4.300;2023-09-19T10:50:06;20.50;99.90
19538;DHT22;9914;51.008;4.300;2023-09-19T10:52:41;20.50;99.90
19538;DHT22;9914;51.008;4.300;2023-09-19T10:55:08;20.50;99.90
19538;DHT22;9914;51.008;4.300;2023-09-19T10:57:37;20.60;99.90
19538;DHT22;9914;51.008;4.300;2023-09-19T11:00:03;20.70;99.90
19538;DHT22;9914;51.008;4.300;2023-09-19T11:06:04;20.60;99.90
19538;DHT22;9914;51.008;4.300;2023-09-19T11:11:48;20.70;99.90
19538;DHT22;9914;51.008;4.300;2023-09-19T11:30:50;21.40;99.90
19538;DHT22;9914;51.008;4.300;2023-09-19T11:36:13;21.40;99.90
19538;DHT22;9914;51.008;4.300;2023-09-19T11:43:52;21.60;99.90
19538;DHT22;9914;51.008;4.300;2023-09-19T11:46:21;21.70;99.90
19538;DHT22;9914;51.008;4.300;2023-09-19T11:48:51;21.80;99.90
19538;DHT22;9914;51.008;4.300;2023-09-19T11:51:24;21.70;99.90
19538;DHT22;9914;51.008;4.300;2023-09-19T11:53:59;21.60;99.90
19538;DHT22;9914;51.008;4.300;2023-09-19T11:56:26;21.50;99.90
19538;DHT22;9914;51.008;4.300;2023-09-19T11:58:55;21.50;99.90
19538;DHT22;9914;51.008;4.300;2023-09-19T12:01:30;21.30;99.90
19538;DHT22;9914;51.008;4.300;2023-09-19T12:03:59;21.30;99.90
19538;DHT22;9914;51.008;4.300;2023-09-19T12:06:29;21.40;99.90
19538;DHT22;9914;51.008;4.300;2023-09-19T12:08:55;21.60;99.90
19538;DHT22;9914;51.008;4.300;2023-09-19T12:11:27;21.80;99.90
19538;DHT22;9914;51.008;4.300;2023-09-19T12:13:55;22.00;99.90
19538;DHT22;9914;51.008;4.300;2023-09-19T12:16:24;21.90;99.90
19538;DHT22;9914;51.008;4.300;2023-09-19T12:18:50;21.90;99.90
19538;DHT22;9914;51.008;4.300;2023-09-19T12:21:31;21.80;99.90
19538;DHT22;9914;51.008;4.300;2023-09-19T12:24:11;21.80;99.90
19538;DHT22;9914;51.008;4.300;2023-09-19T12:26:43;22.10;99.90
19538;DHT22;9914;51.008;4.300;2023-09-19T12:29:16;22.00;99.90
19538;DHT22;9914;51.008;4.300;2023-09-19T12:32:02;22.20;99.90
19538;DHT22;9914;51.008;4.300;2023-09-19T12:34:31;21.90;99.90
19538;DHT22;9914;51.008;4.300;2023-09-19T12:37:18;22.00;99.90
19538;DHT22;9914;51.008;4.300;2023-09-19T12:39:51;22.20;99.90
19538;DHT22;9914;51.008;4.300;2023-09-19T12:42:26;22.30;99.90
19538;DHT22;9914;51.008;4.300;2023-09-19T12:44:58;22.00;99.90
19538;DHT22;9914;51.008;4.300;2023-09-19T12:47:27;21.80;99.90
19538;DHT22;9914;51.008;4.300;2023-09-19T12:50:11;21.80;99.90
19538;DHT22;9914;51.008;4.300;2023-09-19T12:52:46;21.90;99.90
19538;DHT22;9914;51.008;4.300;2023-09-19T12:55:25;22.10;99.90
19538;DHT22;9914;51.008;4.300;2023-09-19T12:58:12;21.90;99.90
19538;DHT22;9914;51.008;4.300;2023-09-19T13:00:42;21.90;99.90
19538;DHT22;9914;51.008;4.300;2023-09-19T13:03:29;21.80;99.90
19538;DHT22;9914;51.008;4.300;2023-09-19T13:06:01;21.80;99.90
19538;DHT22;9914;51.008;4.300;2023-09-19T13:08:34;21.70;99.90
19538;DHT22;9914;51.008;4.300;2023-09-19T13:13:39;21.80;99.90
19538;DHT22;9914;51.008;4.300;2023-09-19T13:16:06;21.90;99.90
19538;DHT22;9914;51.008;4.300;2023-09-19T13:18:48;22.00;99.90
19538;DHT22;9914;51.008;4.300;2023-09-19T13:21:17;22.30;99.90
19538;DHT22;9914;51.008;4.300;2023-09-19T13:23:55;22.30;99.90
19538;DHT22;9914;51.008;4.300;2023-09-19T13:26:27;22.30;99.90
19538;DHT22;9914;51.008;4.300;2023-09-19T13:28:54;22.30;99.90
19538;DHT22;9914;51.008;4.300;2023-09-19T13:31:20;22.40;99.90
19538;DHT22;9914;51.008;4.300;2023-09-19T13:33:48;22.40;99.90
19538;DHT22;9914;51.008;4.300;2023-09-19T13:36:14;22.30;99.90
19538;DHT22;9914;51.008;4.300;2023-09-19T13:38:43;22.20;99.90
19538;DHT22;9914;51.008;4.300;2023-09-19T13:41:12;22.20;99.90
19538;DHT22;9914;51.008;4.300;2023-09-19T13:43:39;22.30;99.90
19538;DHT22;9914;51.008;4.300;2023-09-19T13:46:05;22.30;99.90
19538;DHT22;9914;51.008;4.300;2023-09-19T13:48:33;22.20;99.90
19538;DHT22;9914;51.008;4.300;2023-09-19T13:51:02;22.10;99.90
19538;DHT22;9914;51.008;4.300;2023-09-19T13:53:29;22.40;99.90
19538;DHT22;9914;51.008;4.300;2023-09-19T13:55:55;22.60;99.90
19538;DHT22;9914;51.008;4.300;2023-09-19T13:58:21;22.90;99.90
19538;DHT22;9914;51.008;4.300;2023-09-19T14:00:48;22.90;99.90
19538;DHT22;9914;51.008;4.300;2023-09-19T14:03:14;23.00;99.90
19538;DHT22;9914;51.008;4.300;2023-09-19T14:05:40;22.80;99.90
19538;DHT22;9914;51.008;4.300;2023-09-19T14:08:06;22.30;99.90
19538;DHT22;9914;51.008;4.300;2023-09-19T14:10:32;22.10;99.90
19538;DHT22;9914;51.008;4.300;2023-09-19T14:12:58;22.20;99.90
19538;DHT22;9914;51.008;4.300;2023-09-19T14:15:25;22.20;99.90
19538;DHT22;9914;51.008;4.300;2023-09-19T14:17:56;22.20;99.90
19538;DHT22;9914;51.008;4.300;2023-09-19T14:20:22;22.20;99.90
19538;DHT22;9914;51.008;4.300;2023-09-19T14:22:48;22.20;99.90
19538;DHT22;9914;51.008;4.300;2023-09-19T14:25:14;22.30;99.90
19538;DHT22;9914;51.008;4.300;2023-09-19T14:27:39;22.30;99.90
19538;DHT22;9914;51.008;4.300;2023-09-19T14:30:07;22.30;99.90
19538;DHT22;9914;51.008;4.300;2023-09-19T14:32:33;22.50;99.90
19538;DHT22;9914;51.008;4.300;2023-09-19T14:34:59;22.50;99.90
19538;DHT22;9914;51.008;4.300;2023-09-19T14:37:24;22.40;99.90
19538;DHT22;9914;51.008;4.300;2023-09-19T14:39:51;22.10;99.90
19538;DHT22;9914;51.008;4.300;2023-09-19T14:42:16;22.10;99.90
19538;DHT22;9914;51.008;4.300;2023-09-19T14:44:43;22.20;99.90
19538;DHT22;9914;51.008;4.300;2023-09-19T14:47:09;22.10;99.90
19538;DHT22;9914;51.008;4.300;2023-09-19T14:49:37;21.90;99.90
19538;DHT22;9914;51.008;4.300;2023-09-19T14:52:03;21.70;99.90
19538;DHT22;9914;51.008;4.300;2023-09-19T14:54:30;21.70;99.90
19538;DHT22;9914;51.008;4.300;2023-09-19T14:56:56;21.70;99.90
19538;DHT22;9914;51.008;4.300;2023-09-19T14:59:32;21.50;99.90
19538;DHT22;9914;51.008;4.300;2023-09-19T15:01:59;21.20;99.90
19538;DHT22;9914;51.008;4.300;2023-09-19T15:04:26;21.20;99.90
19538;DHT22;9914;51.008;4.300;2023-09-19T15:06:53;21.10;99.90
19538;DHT22;9914;51.008;4.300;2023-09-19T15:09:21;21.10;99.90
19538;DHT22;9914;51.008;4.300;2023-09-19T15:11:55;21.20;99.90
19538;DHT22;9914;51.008;4.300;2023-09-19T15:14:21;21.10;99.90
19538;DHT22;9914;51.008;4.300;2023-09-19T15:16:48;21.10;99.90
19538;DHT22;9914;51.008;4.300;2023-09-19T15:19:14;20.90;99.90
19538;DHT22;9914;51.008;4.300;2023-09-19T15:21:40;20.90;99.90
19538;DHT22;9914;51.008;4.300;2023-09-19T15:24:07;20.90;99.90
19538;DHT22;9914;51.008;4.300;2023-09-19T15:26:36;20.90;99.90
19538;DHT22;9914;51.008;4.300;2023-09-19T15:29:05;21.00;99.90
19538;DHT22;9914;51.008;4.300;2023-09-19T15:31:31;20.90;99.90
19538;DHT22;9914;51.008;4.300;2023-09-19T15:33:57;20.90;99.90
19538;DHT22;9914;51.008;4.300;2023-09-19T15:36:23;20.90;99.90
19538;DHT22;9914;51.008;4.300;2023-09-19T15:41:31;20.70;99.90
19538;DHT22;9914;51.008;4.300;2023-09-19T15:43:58;20.70;99.90
19538;DHT22;9914;51.008;4.300;2023-09-19T15:46:29;20.50;99.90
19538;DHT22;9914;51.008;4.300;2023-09-19T15:48:55;20.70;99.90
19538;DHT22;9914;51.008;4.300;2023-09-19T15:51:21;20.70;99.90
19538;DHT22;9914;51.008;4.300;2023-09-19T15:53:48;20.70;99.90
19538;DHT22;9914;51.008;4.300;2023-09-19T15:56:15;20.60;99.90
19538;DHT22;9914;51.008;4.300;2023-09-19T15:58:44;20.60;99.90
19538;DHT22;9914;51.008;4.300;2023-09-19T16:01:10;20.60;99.90
19538;DHT22;9914;51.008;4.300;2023-09-19T16:03:38;20.60;99.90
19538;DHT22;9914;51.008;4.300;2023-09-19T16:06:18;20.50;99.90
19538;DHT22;9914;51.008;4.300;2023-09-19T16:08:46;20.60;99.90
19538;DHT22;9914;51.008;4.300;2023-09-19T16:11:15;20.60;99.90
19538;DHT22;9914;51.008;4.300;2023-09-19T16:13:42;20.50;99.90
19538;DHT22;9914;51.008;4.300;2023-09-19T16:16:08;20.50;99.90
19538;DHT22;9914;51.008;4.300;2023-09-19T16:18:47;20.50;99.90
19538;DHT22;9914;51.008;4.300;2023-09-19T16:21:16;20.50;99.90
19538;DHT22;9914;51.008;4.300;2023-09-19T16:23:45;20.50;99.90
19538;DHT22;9914;51.008;4.300;2023-09-19T16:26:11;20.40;99.90
19538;DHT22;9914;51.008;4.300;2023-09-19T16:28:39;20.40;99.90
19538;DHT22;9914;51.008;4.300;2023-09-19T16:31:06;20.50;99.90
19538;DHT22;9914;51.008;4.300;2023-09-19T16:33:33;20.40;99.90
19538;DHT22;9914;51.008;4.300;2023-09-19T16:36:00;20.40;99.90
19538;DHT22;9914;51.008;4.300;2023-09-19T16:38:26;20.20;99.90
19538;DHT22;9914;51.008;4.300;2023-09-19T16:40:56;20.30;99.90
19538;DHT22;9914;51.008;4.300;2023-09-19T16:43:27;20.40;99.90
19538;DHT22;9914;51.008;4.300;2023-09-19T16:46:00;20.40;99.90
19538;DHT22;9914;51.008;4.300;2023-09-19T16:48:26;20.50;99.90
19538;DHT22;9914;51.008;4.300;2023-09-19T16:50:53;20.50;99.90